Time;durP1;ratioP1;P1;durP2;ratioP2;P2;SDS_P1;SDS_P2;PMS_P1;PMS_P2;Temp;Humidity;BMP_temperature;BMP_pressure;BME280_temperature;BME280_humidity;BME280_pressure;Samples;Min_cycle;Max_cycle;Signal;HPM_P1;HPM_P2
2021/07/08 00:00:43;;;;;;;4.55;2.70;;;;;;;18.45;60.54;98942.56;5089686;28;20020;-79
2021/07/08 00:03:08;;;;;;;4.97;3.08;;;;;;;18.47;60.80;98930.31;5090081;28;20369;-80
2021/07/08 00:05:41;;;;;;;6.15;3.20;;;;;;;18.45;60.81;98937.03;5089896;28;20102;-80
2021/07/08 00:08:06;;;;;;;4.60;3.10;;;;;;;18.47;60.75;98933.88;5090324;28;20033;-79
2021/07/08 00:10:37;;;;;;;4.53;3.22;;;;;;;18.48;61.00;98934.72;5089750;28;20441;-81
2021/07/08 00:13:04;;;;;;;4.85;3.40;;;;;;;18.47;60.79;98939.44;5103128;28;20023;-80
2021/07/08 00:15:30;;;;;;;5.43;3.45;;;;;;;18.45;61.02;98938.97;5102719;28;20026;-80
2021/07/08 00:17:57;;;;;;;6.97;3.25;;;;;;;18.42;61.06;98937.69;5101939;28;20032;-79
2021/07/08 00:20:26;;;;;;;7.30;4.22;;;;;;;18.39;61.20;98932.81;5103824;28;20032;-79
2021/07/08 00:22:52;;;;;;;5.43;3.65;;;;;;;18.36;61.40;98940.97;5101767;28;20051;-79
2021/07/08 00:25:23;;;;;;;5.97;3.67;;;;;;;18.34;62.48;98935.78;5097149;28;20086;-81
2021/07/08 00:27:48;;;;;;;4.72;3.20;;;;;;;18.30;61.23;98935.66;5097215;28;20028;-77
2021/07/08 00:30:15;;;;;;;4.72;3.60;;;;;;;18.29;61.61;98936.81;5095410;28;20135;-81
2021/07/08 00:32:41;;;;;;;4.68;3.17;;;;;;;18.27;61.34;98933.53;5097394;28;20024;-80
2021/07/08 00:35:07;;;;;;;5.68;3.40;;;;;;;18.26;61.57;98939.41;5103592;28;20011;-80
2021/07/08 00:37:33;;;;;;;4.95;3.13;;;;;;;18.21;61.44;98945.16;5096976;28;20039;-79
2021/07/08 00:39:59;;;;;;;4.35;3.33;;;;;;;18.19;61.52;98939.97;5098400;28;20020;-80
2021/07/08 00:42:25;;;;;;;5.00;3.08;;;;;;;18.15;61.90;98933.44;5104321;28;20020;-79
2021/07/08 00:44:50;;;;;;;4.97;3.13;;;;;;;18.13;62.05;98936.56;5106260;28;20059;-79
2021/07/08 00:47:15;;;;;;;4.90;2.70;;;;;;;18.12;61.87;98939.66;5101001;28;20023;-79
2021/07/08 00:49:41;;;;;;;5.45;2.85;;;;;;;18.12;61.67;98932.16;5102943;28;20387;-79
2021/07/08 00:52:06;;;;;;;3.80;2.90;;;;;;;18.10;61.78;98937.25;5093676;28;20016;-79
2021/07/08 00:54:32;;;;;;;4.43;2.67;;;;;;;18.09;62.04;98934.78;5093575;28;20020;-78
2021/07/08 00:56:57;;;;;;;4.20;2.85;;;;;;;18.08;61.93;98939.53;5093623;28;20102;-79
2021/07/08 00:59:22;;;;;;;7.50;4.57;;;;;;;18.06;61.89;98936.28;5093532;28;20024;-79
2021/07/08 01:01:49;;;;;;;5.65;2.70;;;;;;;18.10;62.13;98944.75;5092599;28;20031;-79
2021/07/08 01:04:15;;;;;;;3.63;2.45;;;;;;;18.06;61.94;98941.81;5093656;28;20059;-79
2021/07/08 01:06:44;;;;;;;4.70;2.65;;;;;;;18.01;61.99;98939.25;5093249;28;20027;-79
2021/07/08 01:09:13;;;;;;;3.75;2.85;;;;;;;17.98;62.24;98934.31;5097207;28;20392;-79
2021/07/08 01:11:39;;;;;;;4.40;2.65;;;;;;;17.98;62.33;98937.09;5097326;28;20016;-80
2021/07/08 01:14:08;;;;;;;5.18;2.88;;;;;;;17.94;62.24;98945.25;5097262;28;20073;-79
2021/07/08 01:16:34;;;;;;;5.38;2.90;;;;;;;17.92;62.23;98955.09;5097688;28;20495;-78
2021/07/08 01:19:01;;;;;;;4.35;2.80;;;;;;;17.89;62.06;98952.97;5098251;28;20020;-79
2021/07/08 01:21:36;;;;;;;4.45;2.65;;;;;;;17.85;62.28;98952.84;5098076;28;20053;-78
2021/07/08 01:24:03;;;;;;;5.80;2.90;;;;;;;17.82;62.58;98956.28;5101260;28;20051;-79
2021/07/08 01:26:29;;;;;;;3.72;2.58;;;;;;;17.80;62.46;98966.88;5097674;28;20404;-79
2021/07/08 01:28:55;;;;;;;4.60;2.95;;;;;;;17.76;62.50;98961.16;5099080;28;20111;-78
2021/07/08 01:31:23;;;;;;;5.68;2.88;;;;;;;17.78;62.96;98964.44;5098067;28;20035;-78
2021/07/08 01:33:49;;;;;;;3.55;2.70;;;;;;;17.78;62.75;98969.97;5099507;28;20020;-78
2021/07/08 01:36:15;;;;;;;3.50;2.90;;;;;;;17.75;62.65;98962.31;5099328;28;20024;-79
2021/07/08 01:38:40;;;;;;;5.43;3.50;;;;;;;17.76;62.63;98965.91;5098270;28;20045;-79
2021/07/08 01:41:06;;;;;;;6.47;3.30;;;;;;;17.79;62.67;98960.50;5099449;28;20020;-79
2021/07/08 01:43:40;;;;;;;5.13;2.90;;;;;;;17.77;62.57;98964.78;5099256;28;20589;-79
2021/07/08 01:46:09;;;;;;;5.72;3.00;;;;;;;17.74;62.88;98955.13;5098760;28;20012;-79
2021/07/08 01:48:35;;;;;;;4.85;3.05;;;;;;;17.79;62.85;98954.16;5098478;28;20027;-78
2021/07/08 01:51:03;;;;;;;5.63;3.25;;;;;;;17.81;62.92;98955.44;5103655;28;20020;-79
2021/07/08 01:53:29;;;;;;;8.43;3.08;;;;;;;17.85;62.85;98944.50;5086895;28;20103;-79
2021/07/08 01:55:56;;;;;;;4.50;2.92;;;;;;;17.86;63.01;98949.72;5107759;28;20088;-79
2021/07/08 01:58:24;;;;;;;5.45;2.60;;;;;;;17.89;63.31;98951.03;5106548;28;20085;-79
2021/07/08 02:00:50;;;;;;;4.95;3.08;;;;;;;17.91;62.76;98945.13;5107767;28;20023;-79
2021/07/08 02:03:16;;;;;;;7.65;3.20;;;;;;;17.95;62.91;98949.66;5105302;28;20027;-79
2021/07/08 02:05:41;;;;;;;4.95;2.97;;;;;;;17.94;62.86;98955.56;5106781;28;20373;-79
2021/07/08 02:08:07;;;;;;;6.38;2.67;;;;;;;17.93;63.26;98970.59;5100670;28;20023;-79
2021/07/08 02:10:32;;;;;;;5.43;2.92;;;;;;;17.85;62.79;98984.16;5101672;28;20030;-78
2021/07/08 02:12:58;;;;;;;4.32;2.80;;;;;;;17.86;63.16;98982.22;5100563;28;20529;-79
2021/07/08 02:15:23;;;;;;;4.88;3.10;;;;;;;17.87;62.97;98978.28;5100342;28;20032;-79
2021/07/08 02:17:49;;;;;;;5.28;2.90;;;;;;;17.91;62.72;98978.44;5095245;28;20103;-78
2021/07/08 02:20:17;;;;;;;4.45;2.60;;;;;;;17.91;63.05;98997.84;5105500;28;20495;-78
2021/07/08 02:22:44;;;;;;;4.03;2.67;;;;;;;17.86;62.98;99005.22;5111950;28;20585;-79
2021/07/08 02:25:11;;;;;;;6.03;3.17;;;;;;;17.85;63.27;99005.56;5112016;28;20467;-79
2021/07/08 02:27:37;;;;;;;4.97;2.85;;;;;;;17.85;63.51;99006.34;5094595;28;20028;-79
2021/07/08 02:30:11;;;;;;;6.15;2.85;;;;;;;17.83;63.62;98999.50;5095954;28;20544;-79
2021/07/08 02:32:38;;;;;;;7.68;3.50;;;;;;;17.76;63.91;98997.22;5108388;28;20043;-78
2021/07/08 02:35:06;;;;;;;7.07;3.28;;;;;;;17.68;63.85;98992.56;5103829;28;20019;-78
2021/07/08 02:37:32;;;;;;;7.05;3.92;;;;;;;17.65;63.96;99002.34;5091666;28;20028;-79
2021/07/08 02:39:57;;;;;;;4.60;3.92;;;;;;;17.63;64.01;98996.31;5091606;28;20040;-79
2021/07/08 02:42:22;;;;;;;9.05;4.53;;;;;;;17.63;64.48;99001.84;5090484;28;20100;-79
2021/07/08 02:44:48;;;;;;;10.32;4.43;;;;;;;17.58;64.79;99004.78;5091811;28;20066;-79
2021/07/08 02:47:14;;;;;;;7.00;4.95;;;;;;;17.60;64.50;99001.72;5091676;28;20032;-79
2021/07/08 02:49:39;;;;;;;9.13;5.20;;;;;;;17.66;64.42;99003.16;5091744;28;20032;-79
2021/07/08 02:52:05;;;;;;;8.25;5.45;;;;;;;17.71;64.74;99012.13;5091142;28;20035;-79
2021/07/08 02:54:30;;;;;;;9.15;5.18;;;;;;;17.79;64.75;99015.19;5091697;28;20463;-79
2021/07/08 02:56:55;;;;;;;7.43;5.15;;;;;;;17.81;64.82;99022.03;5091385;28;20024;-79
2021/07/08 02:59:21;;;;;;;11.07;5.15;;;;;;;17.84;64.83;99013.03;5110145;28;20023;-79
2021/07/08 03:01:46;;;;;;;7.90;4.05;;;;;;;17.90;65.02;99002.59;5111449;28;20023;-78
2021/07/08 03:04:12;;;;;;;9.48;5.28;;;;;;;17.87;64.64;99003.25;5111362;28;20035;-77
2021/07/08 03:06:37;;;;;;;8.00;5.10;;;;;;;17.89;64.77;98997.38;5111709;28;20026;-79
2021/07/08 03:09:04;;;;;;;9.75;5.50;;;;;;;17.89;64.66;98989.03;5091530;28;20461;-78
2021/07/08 03:11:29;;;;;;;11.15;5.57;;;;;;;17.93;64.69;98990.00;5091120;28;20039;-79
2021/07/08 03:13:55;;;;;;;10.55;5.28;;;;;;;17.92;64.75;98982.84;5091140;28;20077;-79
2021/07/08 03:16:20;;;;;;;9.02;5.38;;;;;;;18.00;64.82;98987.56;5091457;28;20028;-79
2021/07/08 03:18:45;;;;;;;7.70;5.00;;;;;;;18.06;64.94;98988.19;5091251;28;20487;-79
2021/07/08 03:21:11;;;;;;;11.75;5.30;;;;;;;18.07;64.53;98985.09;5090706;28;20024;-79
2021/07/08 03:23:36;;;;;;;7.18;5.22;;;;;;;18.09;64.75;98990.28;5090928;28;20460;-79
2021/07/08 03:26:03;;;;;;;8.40;5.65;;;;;;;18.13;64.66;98991.25;5091070;28;20040;-79
2021/07/08 03:28:28;;;;;;;8.35;5.57;;;;;;;18.16;64.73;98990.59;5106427;28;20032;-79
2021/07/08 03:30:54;;;;;;;8.93;5.18;;;;;;;18.17;64.78;98988.63;5092675;28;20028;-78
2021/07/08 03:33:19;;;;;;;10.27;5.40;;;;;;;18.18;64.65;98984.69;5094233;28;20028;-78
2021/07/08 03:35:45;;;;;;;9.05;5.32;;;;;;;18.19;64.53;98978.00;5096837;28;20032;-78
2021/07/08 03:38:10;;;;;;;7.88;4.47;;;;;;;18.16;65.42;98962.84;5091240;28;20039;-79
2021/07/08 03:40:37;;;;;;;7.97;4.78;;;;;;;18.12;64.87;98962.69;5092338;28;20051;-79
2021/07/08 03:43:02;;;;;;;8.95;4.72;;;;;;;18.12;64.76;98954.38;5091326;28;20057;-79
2021/07/08 03:45:28;;;;;;;10.13;5.32;;;;;;;18.13;64.86;98960.72;5091065;28;20028;-78
2021/07/08 03:47:53;;;;;;;9.18;4.97;;;;;;;18.20;65.00;98965.75;5091269;28;20054;-79
2021/07/08 03:50:19;;;;;;;7.15;5.15;;;;;;;18.27;64.84;98952.97;5091762;28;20040;-79
2021/07/08 03:52:45;;;;;;;8.90;5.00;;;;;;;18.34;64.75;98955.22;5106901;28;20035;-79
2021/07/08 03:55:16;;;;;;;6.25;4.47;;;;;;;18.41;64.76;98949.94;5094578;28;20020;-79
2021/07/08 03:57:54;;;;;;;11.13;5.30;;;;;;;18.46;64.61;98960.03;5113198;28;20035;-79
2021/07/08 04:00:33;;;;;;;9.05;5.15;;;;;;;18.52;64.67;98955.91;5114882;28;20028;-79
2021/07/08 04:03:01;;;;;;;7.75;4.38;;;;;;;18.57;64.52;98954.88;5114941;28;20491;-79
2021/07/08 04:05:26;;;;;;;8.75;4.78;;;;;;;18.62;64.55;98965.81;5110190;28;20556;-78
2021/07/08 04:07:52;;;;;;;7.78;4.38;;;;;;;18.65;64.93;98970.69;5093868;28;20529;-78
2021/07/08 04:10:17;;;;;;;8.10;4.53;;;;;;;18.68;64.35;98978.34;5094079;28;20028;-78
2021/07/08 04:12:44;;;;;;;7.75;5.10;;;;;;;18.75;64.45;98994.47;5095006;28;20480;-78
2021/07/08 04:15:09;;;;;;;6.07;4.50;;;;;;;18.76;64.04;99001.66;5094197;28;20055;-79
2021/07/08 04:17:35;;;;;;;5.47;3.67;;;;;;;18.71;63.98;99007.44;5095331;28;20035;-79
2021/07/08 04:20:00;;;;;;;8.88;4.43;;;;;;;18.71;63.95;99001.88;5105466;28;20024;-79
2021/07/08 04:22:26;;;;;;;7.97;4.07;;;;;;;18.71;63.97;99005.47;5097505;28;20020;-78
2021/07/08 04:24:51;;;;;;;7.20;4.63;;;;;;;18.74;63.95;99009.53;5095045;28;20046;-79
2021/07/08 04:27:17;;;;;;;9.23;4.13;;;;;;;18.75;63.82;99009.19;5094775;28;20028;-79
2021/07/08 04:29:42;;;;;;;5.63;3.88;;;;;;;18.80;63.95;99002.59;5094403;28;20068;-79
2021/07/08 04:32:07;;;;;;;9.50;3.85;;;;;;;18.79;63.89;98995.44;5094168;28;20028;-78
2021/07/08 04:34:33;;;;;;;9.13;3.90;;;;;;;18.82;63.78;99003.09;5095580;28;20059;-78
2021/07/08 04:36:58;;;;;;;6.32;3.80;;;;;;;18.87;63.73;98996.53;5097277;28;20016;-79
2021/07/08 04:39:24;;;;;;;6.25;3.55;;;;;;;18.86;63.52;98978.22;5077980;28;20039;-78
2021/07/08 04:41:49;;;;;;;11.43;4.18;;;;;;;18.85;63.57;98952.38;5098948;28;20020;-78
2021/07/08 04:44:14;;;;;;;8.93;4.10;;;;;;;18.89;63.67;98935.88;5113972;28;20030;-77
2021/07/08 04:46:40;;;;;;;6.63;3.45;;;;;;;18.94;63.82;98941.22;5113756;28;20031;-76
2021/07/08 04:49:06;;;;;;;7.00;3.90;;;;;;;18.96;63.79;98946.47;5114352;28;20027;-77
2021/07/08 04:51:31;;;;;;;7.05;3.83;;;;;;;18.96;63.90;98935.34;5109165;28;20055;-78
2021/07/08 04:53:56;;;;;;;4.35;3.15;;;;;;;18.98;63.98;98905.25;5113938;28;20031;-76
2021/07/08 04:56:22;;;;;;;4.25;3.00;;;;;;;18.98;63.85;98881.03;5114029;28;20133;-77
2021/07/08 04:58:48;;;;;;;6.57;3.35;;;;;;;18.94;63.81;98874.53;5114707;28;20073;-77
2021/07/08 05:01:13;;;;;;;6.97;3.55;;;;;;;18.91;64.08;98883.53;5102052;28;20016;-77
2021/07/08 05:03:39;;;;;;;7.30;3.45;;;;;;;18.88;64.02;98903.66;5093603;28;20362;-78
2021/07/08 05:06:04;;;;;;;7.30;4.07;;;;;;;18.86;64.00;98914.31;5092852;28;20051;-77
2021/07/08 05:08:30;;;;;;;9.95;4.20;;;;;;;18.85;64.12;98926.59;5094052;28;20028;-76
2021/07/08 05:10:55;;;;;;;8.02;4.13;;;;;;;18.86;64.28;98925.44;5092966;28;20050;-77
2021/07/08 05:13:20;;;;;;;7.05;3.42;;;;;;;18.88;64.39;98920.34;5093540;28;20043;-77
2021/07/08 05:15:46;;;;;;;6.25;3.38;;;;;;;18.91;64.58;98930.78;5092849;28;20032;-76
2021/07/08 05:18:11;;;;;;;5.10;3.33;;;;;;;18.92;64.71;98929.63;5093099;28;20032;-77
2021/07/08 05:20:39;;;;;;;6.30;3.65;;;;;;;18.92;64.42;98921.28;5092796;28;20032;-76
2021/07/08 05:23:12;;;;;;;4.95;3.13;;;;;;;18.94;64.72;98927.31;5093167;28;20059;-76
2021/07/08 05:25:38;;;;;;;4.82;3.00;;;;;;;18.94;64.67;98924.53;5093098;28;20020;-76
2021/07/08 05:28:04;;;;;;;7.50;3.40;;;;;;;18.98;64.83;98922.72;5102573;28;20034;-76
2021/07/08 05:30:29;;;;;;;5.65;3.58;;;;;;;19.00;64.91;98925.97;5095721;28;20036;-77
2021/07/08 05:32:56;;;;;;;7.72;3.63;;;;;;;19.05;65.58;98927.75;5075008;28;20075;-77
2021/07/08 05:35:22;;;;;;;7.13;3.53;;;;;;;19.02;65.26;98926.44;5102132;28;20032;-78
2021/07/08 05:37:48;;;;;;;6.63;3.75;;;;;;;19.15;65.23;98926.50;5092907;28;20444;-77
2021/07/08 05:40:14;;;;;;;5.88;3.80;;;;;;;19.22;65.50;98932.31;5093241;28;20020;-77
2021/07/08 05:42:39;;;;;;;5.88;4.50;;;;;;;19.25;65.80;98930.81;5092464;28;20023;-77
2021/07/08 05:45:06;;;;;;;6.85;4.13;;;;;;;19.29;65.83;98928.97;5092429;28;20028;-77
2021/07/08 05:47:32;;;;;;;6.47;4.22;;;;;;;19.34;65.77;98943.47;5092940;28;20028;-77
2021/07/08 05:49:57;;;;;;;6.07;4.43;;;;;;;19.42;66.03;98938.16;5093078;28;20030;-77
2021/07/08 05:52:23;;;;;;;7.50;4.28;;;;;;;19.45;65.94;98943.84;5092765;28;20137;-76
2021/07/08 05:54:49;;;;;;;8.65;4.80;;;;;;;19.53;66.14;98949.66;5092978;28;20388;-78
2021/07/08 05:57:14;;;;;;;6.18;4.35;;;;;;;19.59;65.64;98953.81;5092688;28;20027;-77
2021/07/08 05:59:39;;;;;;;9.02;4.53;;;;;;;19.62;65.66;98958.72;5092782;28;20024;-77
2021/07/08 06:02:05;;;;;;;8.10;4.82;;;;;;;19.65;65.46;98955.22;5092232;28;20020;-77
2021/07/08 06:04:31;;;;;;;7.85;4.63;;;;;;;19.70;65.50;98962.56;5092673;28;20031;-78
2021/07/08 06:06:56;;;;;;;4.85;4.20;;;;;;;19.76;65.28;98961.19;5092522;28;20024;-78
2021/07/08 06:09:21;;;;;;;7.05;4.72;;;;;;;19.81;65.37;98947.03;5094676;28;20524;-78
2021/07/08 06:11:47;;;;;;;6.15;4.60;;;;;;;19.84;65.20;98942.75;5112188;28;20028;-78
2021/07/08 06:14:12;;;;;;;8.43;4.53;;;;;;;19.86;64.96;98949.59;5112594;28;20031;-78
2021/07/08 06:16:38;;;;;;;8.70;5.05;;;;;;;19.88;65.01;98958.44;5111216;28;20058;-77
2021/07/08 06:19:03;;;;;;;6.68;5.53;;;;;;;19.91;64.98;98960.53;5112663;28;20028;-78
2021/07/08 06:21:28;;;;;;;8.95;5.32;;;;;;;19.95;64.70;98945.91;5112240;28;20384;-78
2021/07/08 06:23:54;;;;;;;8.45;5.20;;;;;;;19.98;64.63;98943.22;5112434;28;20024;-77
2021/07/08 06:26:19;;;;;;;7.40;5.40;;;;;;;19.99;64.75;98949.63;5112454;28;20047;-77
2021/07/08 06:28:45;;;;;;;9.60;5.47;;;;;;;20.05;64.49;98957.38;5112281;28;20051;-77
2021/07/08 06:31:10;;;;;;;10.02;5.78;;;;;;;20.09;64.28;98943.59;5101678;28;20027;-77
2021/07/08 06:33:36;;;;;;;8.98;6.03;;;;;;;20.14;64.38;98940.59;5095930;28;20488;-77
2021/07/08 06:36:02;;;;;;;8.80;6.28;;;;;;;20.16;64.37;98932.69;5092773;28;20028;-77
2021/07/08 06:38:28;;;;;;;9.30;6.55;;;;;;;20.21;64.36;98935.22;5102869;28;20481;-77
2021/07/08 06:40:53;;;;;;;8.32;5.57;;;;;;;20.28;64.28;98937.44;5091019;28;20047;-77
2021/07/08 06:43:19;;;;;;;11.15;7.38;;;;;;;20.35;64.29;98932.09;5086233;28;20063;-78
2021/07/08 06:45:45;;;;;;;8.63;6.97;;;;;;;20.35;64.12;98929.31;5109223;28;20027;-77
2021/07/08 06:48:13;;;;;;;10.95;7.85;;;;;;;20.43;64.21;98937.88;5103846;28;20027;-77
2021/07/08 06:50:39;;;;;;;11.27;7.65;;;;;;;20.47;63.56;98930.44;5110922;28;20034;-77
2021/07/08 06:53:06;;;;;;;13.00;6.82;;;;;;;20.50;63.78;98924.16;5111670;28;20023;-76
2021/07/08 06:55:32;;;;;;;10.77;6.90;;;;;;;20.59;63.91;98930.41;5090892;28;20773;-77
2021/07/08 06:57:58;;;;;;;9.88;6.93;;;;;;;20.68;64.02;98930.25;5090953;28;20028;-77
2021/07/08 07:00:28;;;;;;;10.23;7.22;;;;;;;20.73;63.69;98927.22;5090654;28;20066;-77
2021/07/08 07:02:55;;;;;;;12.70;7.70;;;;;;;20.84;63.96;98921.19;5090733;28;20027;-77
2021/07/08 07:05:22;;;;;;;11.50;6.93;;;;;;;20.87;63.80;98924.06;5090832;28;20047;-79
2021/07/08 07:07:48;;;;;;;11.52;6.45;;;;;;;20.95;63.88;98930.69;5091082;28;20100;-78
2021/07/08 07:10:15;;;;;;;7.47;6.35;;;;;;;20.99;63.93;98930.78;5091262;28;20464;-78
2021/07/08 07:12:42;;;;;;;7.72;6.53;;;;;;;21.08;63.89;98934.22;5107221;28;20134;-77
2021/07/08 07:15:08;;;;;;;7.75;6.40;;;;;;;21.15;63.97;98942.81;5094911;28;20065;-76
2021/07/08 07:17:35;;;;;;;8.00;6.97;;;;;;;21.20;63.70;98931.38;5107996;28;20027;-77
2021/07/08 07:20:01;;;;;;;9.63;7.18;;;;;;;21.31;63.75;98934.47;5110247;28;20062;-77
2021/07/08 07:22:26;;;;;;;10.00;6.80;;;;;;;21.36;63.82;98928.63;5103578;28;20052;-77
2021/07/08 07:24:52;;;;;;;9.35;7.18;;;;;;;21.47;63.69;98930.88;5090883;28;20028;-77
2021/07/08 07:27:19;;;;;;;14.88;7.50;;;;;;;21.53;63.59;98935.03;5089455;28;20554;-77
2021/07/08 07:29:44;;;;;;;10.18;7.57;;;;;;;21.61;63.68;98930.44;5080021;28;20023;-78
2021/07/08 07:32:09;;;;;;;14.95;7.93;;;;;;;21.69;63.62;98923.91;5093514;28;20028;-76
2021/07/08 07:34:35;;;;;;;10.10;7.45;;;;;;;21.75;63.30;98927.25;5095170;28;20063;-78
2021/07/08 07:37:00;;;;;;;14.68;8.13;;;;;;;21.81;63.28;98918.25;5109037;28;20051;-78
2021/07/08 07:39:25;;;;;;;10.43;6.90;;;;;;;21.91;63.23;98918.88;5100074;28;20641;-77
2021/07/08 07:41:51;;;;;;;11.82;7.03;;;;;;;21.93;63.30;98911.75;5106138;28;20034;-78
2021/07/08 07:44:16;;;;;;;13.35;7.75;;;;;;;21.97;63.32;98909.84;5112041;28;20024;-76
2021/07/08 07:46:41;;;;;;;10.48;7.95;;;;;;;22.04;63.56;98900.81;5096488;28;20492;-80
2021/07/08 07:49:08;;;;;;;11.20;7.18;;;;;;;22.15;63.55;98898.31;5111617;28;20527;-81
2021/07/08 07:51:34;;;;;;;10.93;7.28;;;;;;;22.20;63.35;98902.78;5107551;28;20506;-80
2021/07/08 07:53:59;;;;;;;15.23;9.70;;;;;;;22.23;63.04;98902.84;5109952;28;20031;-81
2021/07/08 07:56:24;;;;;;;11.18;7.13;;;;;;;22.28;63.04;98904.56;5096245;28;20058;-81
2021/07/08 07:58:49;;;;;;;10.88;8.10;;;;;;;22.35;63.05;98912.28;5098530;28;20062;-83
2021/07/08 08:01:15;;;;;;;14.93;7.85;;;;;;;22.37;62.61;98902.38;5096651;28;20032;-81
2021/07/08 08:03:42;;;;;;;12.18;7.70;;;;;;;22.41;62.58;98905.25;5102962;28;20024;-83
2021/07/08 08:08:52;;;;;;;11.38;7.25;;;;;;;22.51;62.52;98901.91;5099921;28;20066;-82
2021/07/08 08:11:20;;;;;;;16.20;7.80;;;;;;;22.56;62.31;98900.81;5109211;28;20433;-81
2021/07/08 08:13:46;;;;;;;12.23;8.45;;;;;;;22.63;62.52;98892.59;5103049;28;20028;-81
2021/07/08 08:16:11;;;;;;;15.02;8.52;;;;;;;22.71;62.52;98897.16;5106136;28;20036;-82
2021/07/08 08:18:36;;;;;;;10.68;7.65;;;;;;;22.81;62.60;98892.94;5109840;28;20285;-81
2021/07/08 08:21:02;;;;;;;12.25;7.57;;;;;;;22.91;62.43;98888.75;5094225;28;20051;-83
2021/07/08 08:23:28;;;;;;;11.77;7.60;;;;;;;22.90;61.94;98887.94;5093384;28;20035;-80
2021/07/08 08:25:53;;;;;;;15.05;7.50;;;;;;;22.95;62.12;98878.44;5093081;28;20058;-81
2021/07/08 08:28:19;;;;;;;13.68;7.40;;;;;;;23.03;62.39;98879.38;5108082;28;20116;-82
2021/07/08 08:30:47;;;;;;;9.80;7.70;;;;;;;23.14;62.42;98886.00;5104031;28;20043;-82
2021/07/08 08:33:13;;;;;;;12.73;7.93;;;;;;;23.26;62.53;98881.44;5106250;28;20392;-83
2021/07/08 08:35:39;;;;;;;13.27;7.75;;;;;;;23.39;62.44;98885.69;5097478;28;20020;-82
2021/07/08 08:38:05;;;;;;;11.27;7.88;;;;;;;23.51;62.11;98883.88;5111278;28;20043;-83
2021/07/08 08:40:31;;;;;;;12.60;9.30;;;;;;;23.59;61.93;98885.63;5102422;28;20479;-82
2021/07/08 08:42:57;;;;;;;11.13;7.22;;;;;;;23.63;61.63;98881.72;5103063;28;20027;-79
2021/07/08 08:45:24;;;;;;;13.18;7.93;;;;;;;23.66;61.34;98887.72;5105767;28;20034;-78
2021/07/08 08:48:10;;;;;;;12.93;7.85;;;;;;;23.71;61.24;98879.00;5107201;28;20495;-83
2021/07/08 08:50:39;;;;;;;11.40;7.28;;;;;;;23.75;61.06;98880.72;5104181;28;20038;-83
2021/07/08 08:53:05;;;;;;;10.40;7.55;;;;;;;23.77;60.98;98871.91;5100192;28;20032;-80
2021/07/08 08:55:34;;;;;;;17.58;8.10;;;;;;;23.79;60.73;98881.56;5096717;28;20016;-84
2021/07/08 08:58:00;;;;;;;10.18;7.78;;;;;;;23.85;60.86;98873.66;5098978;28;20482;-83
2021/07/08 09:00:25;;;;;;;13.40;8.10;;;;;;;23.94;60.72;98876.19;5108242;28;20016;-80
2021/07/08 09:03:08;;;;;;;14.63;8.40;;;;;;;24.00;60.44;98882.31;5100348;28;20027;-80
2021/07/08 09:05:36;;;;;;;13.05;8.02;;;;;;;24.02;60.30;98883.53;5107150;28;20495;-83
2021/07/08 09:08:10;;;;;;;13.93;8.70;;;;;;;24.04;60.11;98886.00;5082005;28;20620;-83
2021/07/08 09:10:35;;;;;;;10.50;8.07;;;;;;;24.06;60.14;98877.97;5101934;28;20189;-83
2021/07/08 09:13:00;;;;;;;12.23;8.05;;;;;;;24.06;60.10;98881.59;5106132;28;20464;-84
2021/07/08 09:15:26;;;;;;;11.90;8.15;;;;;;;24.12;59.98;98879.28;5097875;28;20597;-83
2021/07/08 09:17:52;;;;;;;11.88;7.95;;;;;;;24.12;59.87;98876.47;5095623;28;20031;-82
2021/07/08 09:20:20;;;;;;;13.15;7.85;;;;;;;24.16;59.76;98876.56;5107094;28;20039;-82
2021/07/08 09:22:47;;;;;;;11.35;8.18;;;;;;;24.22;59.85;98877.84;5074971;28;20058;-82
2021/07/08 09:25:18;;;;;;;12.90;7.90;;;;;;;24.26;59.97;98878.69;5097004;28;20036;-82
2021/07/08 09:27:45;;;;;;;11.73;7.18;;;;;;;24.29;59.91;98874.31;5103684;28;20483;-79
2021/07/08 09:30:23;;;;;;;8.23;6.68;;;;;;;24.37;59.91;98878.84;5100744;28;20380;-82
2021/07/08 09:32:50;;;;;;;10.90;6.85;;;;;;;24.43;59.81;98879.31;5101564;28;20028;-82
2021/07/08 09:35:31;;;;;;;11.77;7.32;;;;;;;24.47;59.39;98875.34;5100900;28;20041;-83
2021/07/08 09:38:12;;;;;;;12.55;7.75;;;;;;;24.51;59.46;98869.81;5081153;28;20423;-79
2021/07/08 09:40:38;;;;;;;14.55;7.18;;;;;;;24.51;59.23;98873.41;5105058;28;20110;-84
2021/07/08 09:43:04;;;;;;;10.18;6.38;;;;;;;24.55;59.23;98853.84;5093884;28;20028;-82
2021/07/08 09:45:29;;;;;;;11.13;6.95;;;;;;;24.64;59.58;98859.16;5095505;28;20035;-78
2021/07/08 09:48:10;;;;;;;10.88;7.43;;;;;;;24.70;59.06;98852.03;5079020;28;20035;-82
2021/07/08 09:50:37;;;;;;;10.98;6.35;;;;;;;24.73;58.89;98851.28;5092544;28;20024;-83
2021/07/08 09:53:10;;;;;;;13.77;7.75;;;;;;;24.70;58.92;98849.22;5097818;28;20028;-82
2021/07/08 09:58:30;;;;;;;10.15;6.65;;;;;;;24.65;59.04;98849.56;5102316;28;20066;-81
2021/07/08 10:00:56;;;;;;;13.52;7.15;;;;;;;24.65;59.03;98841.16;5097982;28;20059;-80
2021/07/08 10:03:22;;;;;;;10.40;6.65;;;;;;;24.70;59.27;98842.78;5093521;28;20385;-80
2021/07/08 10:05:47;;;;;;;11.30;6.25;;;;;;;24.71;59.31;98845.22;5102613;28;20040;-76
2021/07/08 10:08:13;;;;;;;10.93;6.65;;;;;;;24.76;59.13;98844.91;5098000;28;20028;-82
2021/07/08 10:10:40;;;;;;;8.52;6.47;;;;;;;24.83;59.26;98847.00;5095630;28;20124;-80
2021/07/08 10:13:07;;;;;;;11.93;6.68;;;;;;;24.86;58.77;98843.41;5103559;28;20081;-81
2021/07/08 10:15:35;;;;;;;11.60;5.97;;;;;;;24.91;59.19;98845.06;5097499;28;20053;-82
2021/07/08 10:18:02;;;;;;;9.73;6.45;;;;;;;24.93;58.81;98845.50;5095819;28;20075;-81
2021/07/08 10:20:28;;;;;;;11.73;7.28;;;;;;;24.95;59.02;98843.94;5092844;28;20038;-83
2021/07/08 10:22:53;;;;;;;10.88;7.25;;;;;;;24.97;58.60;98840.72;5097460;28;20055;-81
2021/07/08 10:25:19;;;;;;;11.45;6.53;;;;;;;25.01;58.31;98835.97;5095789;28;20079;-79
2021/07/08 10:27:45;;;;;;;11.70;7.32;;;;;;;25.02;58.70;98837.56;5099626;28;20077;-80
2021/07/08 10:30:12;;;;;;;12.40;7.43;;;;;;;25.10;58.66;98828.03;5097619;28;20042;-79
2021/07/08 10:32:38;;;;;;;10.43;7.47;;;;;;;25.22;58.75;98821.34;5104998;28;20080;-83
2021/07/08 10:35:05;;;;;;;10.23;7.95;;;;;;;25.37;58.51;98816.66;5096591;28;21280;-80
2021/07/08 10:37:33;;;;;;;14.07;8.10;;;;;;;25.47;58.05;98818.00;5081529;28;20020;-82
2021/07/08 10:40:00;;;;;;;18.50;8.15;;;;;;;25.56;58.43;98812.03;5104931;28;20535;-82
2021/07/08 10:42:45;;;;;;;11.48;7.25;;;;;;;25.63;58.41;98805.66;5096459;28;20080;-81
2021/07/08 10:45:23;;;;;;;13.20;6.95;;;;;;;25.72;58.21;98803.31;5094439;28;20032;-83
2021/07/08 10:47:49;;;;;;;11.63;7.22;;;;;;;25.80;57.84;98804.16;5099870;28;20028;-80
2021/07/08 10:50:47;;;;;;;12.00;7.88;;;;;;;25.84;57.70;98803.00;5098672;28;20144;-79
2021/07/08 10:53:18;;;;;;;13.17;8.43;;;;;;;25.89;57.41;98801.00;5087236;28;20047;-80
2021/07/08 10:55:51;;;;;;;10.57;8.20;;;;;;;25.94;57.41;98804.28;5095720;28;20047;-79
2021/07/08 10:58:42;;;;;;;14.20;8.85;;;;;;;25.96;57.31;98799.06;5102356;28;20451;-80
2021/07/08 11:01:28;;;;;;;12.82;8.65;;;;;;;26.03;57.26;98798.28;5102386;28;20032;-79
2021/07/08 11:03:54;;;;;;;10.25;7.22;;;;;;;26.13;57.26;98800.41;5094332;28;20052;-79
2021/07/08 11:06:24;;;;;;;16.05;8.30;;;;;;;26.25;57.50;98799.25;5108394;28;20085;-76
2021/07/08 11:08:58;;;;;;;19.92;8.75;;;;;;;26.35;57.30;98797.66;5097713;28;20020;-79
2021/07/08 11:11:24;;;;;;;18.35;10.48;;;;;;;26.44;57.25;98800.94;5101665;28;20055;-81
2021/07/08 11:13:54;;;;;;;16.73;9.82;;;;;;;26.52;56.99;98798.16;5098890;28;20108;-80
2021/07/08 11:16:39;;;;;;;17.75;9.30;;;;;;;26.60;56.43;98791.34;5076858;28;20027;-81
2021/07/08 11:19:05;;;;;;;19.73;9.68;;;;;;;26.62;56.29;98791.75;5096099;28;20024;-81
2021/07/08 11:21:49;;;;;;;18.73;10.88;;;;;;;26.66;55.89;98792.59;5098280;28;20076;-80
2021/07/08 11:24:18;;;;;;;13.95;9.50;;;;;;;26.67;56.11;98791.38;5098225;28;20028;-81
2021/07/08 11:26:54;;;;;;;20.92;9.55;;;;;;;26.77;56.01;98781.34;5098473;28;20020;-82
2021/07/08 11:29:32;;;;;;;15.05;9.23;;;;;;;26.87;55.52;98788.22;5094993;28;20040;-81
2021/07/08 11:31:58;;;;;;;14.98;10.25;;;;;;;26.90;55.51;98784.63;5096810;28;20515;-82
2021/07/08 11:34:25;;;;;;;18.25;10.77;;;;;;;26.96;55.38;98773.75;5093884;28;20028;-82